createdAt,value
2022-08-10T00:01:08.890Z,4.20
2022-08-10T00:04:10.533Z,4.15
2022-08-10T00:07:22.795Z,3.90
2022-08-10T00:10:25.136Z,4.18
2022-08-10T00:13:26.858Z,4.00
2022-08-10T00:16:28.432Z,3.75
2022-08-10T00:19:30.038Z,4.10
2022-08-10T00:22:57.610Z,4.00
2022-08-10T00:25:59.796Z,4.03
2022-08-10T00:29:01.400Z,4.20
2022-08-10T00:32:03.235Z,4.15
2022-08-10T00:35:05.335Z,4.75
2022-08-10T00:38:06.964Z,4.97
2022-08-10T00:41:08.563Z,4.20
2022-08-10T00:44:10.144Z,4.10
2022-08-10T00:47:36.234Z,4.03
2022-08-10T00:50:34.726Z,5.03
2022-08-10T00:53:36.371Z,4.00
2022-08-10T00:57:16.875Z,4.50
2022-08-10T01:00:00.502Z,4.40
2022-08-10T01:03:02.546Z,4.72
2022-08-10T01:06:29.976Z,4.20
2022-08-10T01:09:56.824Z,4.45
2022-08-10T01:13:30.542Z,4.30
2022-08-10T01:16:37.997Z,4.80
2022-08-10T01:20:00.728Z,4.65
2022-08-10T01:23:12.658Z,4.88
2022-08-10T01:26:34.484Z,4.45
2022-08-10T01:30:11.150Z,4.85
2022-08-10T01:36:32.058Z,4.72
2022-08-10T01:39:40.648Z,5.00
2022-08-10T01:42:46.878Z,5.00
2022-08-10T01:45:53.313Z,5.05
2022-08-10T01:48:58.858Z,5.03
2022-08-10T01:52:01.687Z,5.05
2022-08-10T01:55:05.364Z,5.10
2022-08-10T01:58:09.803Z,4.55
2022-08-10T02:01:16.826Z,4.95
2022-08-10T02:04:21.243Z,4.65
2022-08-10T02:07:27.690Z,5.10
2022-08-10T02:10:30.860Z,5.03
2022-08-10T02:13:33.250Z,5.20
2022-08-10T02:16:38.022Z,5.67
2022-08-10T02:19:41.205Z,5.00
2022-08-10T02:22:45.591Z,4.68
2022-08-10T02:25:48.755Z,4.82
2022-08-10T02:28:52.486Z,5.07
2022-08-10T02:31:55.516Z,5.05
2022-08-10T02:34:58.983Z,5.32
2022-08-10T02:38:05.234Z,5.32
2022-08-10T02:45:01.928Z,5.53
2022-08-10T02:45:25.818Z,5.55
2022-08-10T02:48:41.800Z,5.10
2022-08-10T02:52:06.559Z,5.88
2022-08-10T02:55:32.733Z,6.50
2022-08-10T02:58:40.538Z,5.93
2022-08-10T03:01:44.960Z,6.30
2022-08-10T03:04:58.106Z,5.57
2022-08-10T03:08:07.119Z,5.57
2022-08-10T03:11:12.983Z,5.65
2022-08-10T03:14:16.203Z,6.05
2022-08-10T03:17:18.183Z,6.72
2022-08-10T03:20:37.336Z,6.72
2022-08-10T03:23:43.156Z,7.57
2022-08-10T03:26:45.146Z,7.47
2022-08-10T03:30:28.541Z,5.88
2022-08-10T03:33:10.411Z,5.60
2022-08-10T03:36:43.673Z,5.67
2022-08-10T03:39:34.245Z,5.82
2022-08-10T03:42:38.186Z,6.38
2022-08-10T03:45:55.221Z,7.28
2022-08-10T03:49:01.547Z,5.93
2022-08-10T03:52:03.694Z,6.45
2022-08-10T03:55:06.108Z,8.93
2022-08-10T03:58:07.903Z,11.30
2022-08-10T04:01:10.106Z,6.35
2022-08-10T04:04:13.835Z,6.53
2022-08-10T04:07:18.825Z,5.90
2022-08-10T04:10:20.418Z,5.73
2022-08-10T04:13:22.867Z,5.85
2022-08-10T04:16:24.608Z,6.15
2022-08-10T04:19:30.001Z,6.40
2022-08-10T04:22:33.598Z,6.20
2022-08-10T04:25:36.599Z,7.32
2022-08-10T04:28:39.335Z,6.60
2022-08-10T04:31:43.482Z,6.53
2022-08-10T04:34:46.310Z,6.45
2022-08-10T04:37:49.733Z,8.30
2022-08-10T04:40:51.555Z,8.52
2022-08-10T04:43:53.143Z,9.07
2022-08-10T04:46:58.512Z,6.90
2022-08-10T04:50:01.126Z,7.05
2022-08-10T04:53:04.379Z,6.95
2022-08-10T04:56:08.522Z,6.32
2022-08-10T04:59:11.513Z,6.45
2022-08-10T05:02:28.812Z,7.43
2022-08-10T05:05:33.463Z,7.13
2022-08-10T05:08:35.046Z,6.68
2022-08-10T05:11:36.657Z,6.88
2022-08-10T05:14:38.386Z,6.80
2022-08-10T05:17:41.530Z,6.38
2022-08-10T05:21:03.393Z,6.82
2022-08-10T05:24:05.435Z,6.70
2022-08-10T05:27:09.384Z,6.63
2022-08-10T05:30:19.068Z,6.20
2022-08-10T05:33:20.645Z,6.60
2022-08-10T05:36:22.321Z,6.43
2022-08-10T05:39:30.100Z,6.75
2022-08-10T05:42:34.888Z,7.03
2022-08-10T05:46:17.476Z,7.00
2022-08-10T05:49:00.960Z,6.85
2022-08-10T05:52:03.805Z,7.50
2022-08-10T05:55:06.208Z,7.28
2022-08-10T05:58:08.060Z,7.38
2022-08-10T06:01:13.487Z,8.27
2022-08-10T06:04:37.468Z,8.70
2022-08-10T06:08:08.461Z,8.48
2022-08-10T06:12:23.921Z,8.20
2022-08-10T06:15:00.005Z,8.50
2022-08-10T06:18:07.154Z,7.32
2022-08-10T06:21:12.226Z,7.68
2022-08-10T06:24:17.219Z,7.05
2022-08-10T06:27:18.988Z,7.32
2022-08-10T06:30:38.270Z,6.57
2022-08-10T06:33:40.738Z,6.38
2022-08-10T06:36:44.364Z,6.07
2022-08-10T06:39:46.386Z,6.05
2022-08-10T06:42:49.326Z,6.37
2022-08-10T06:46:07.880Z,5.90
2022-08-10T06:49:11.470Z,6.18
2022-08-10T06:55:39.833Z,5.70
2022-08-10T06:59:21.741Z,5.10
2022-08-10T07:02:33.644Z,5.45
2022-08-10T07:05:40.679Z,5.10
2022-08-10T07:08:45.930Z,4.60
2022-08-10T07:11:50.714Z,4.07
2022-08-10T07:14:54.824Z,4.30
2022-08-10T07:17:57.469Z,3.65
2022-08-10T07:21:01.940Z,3.97
2022-08-10T07:24:08.085Z,3.67
2022-08-10T07:27:10.673Z,3.72
2022-08-10T07:30:12.965Z,3.60
2022-08-10T07:33:18.263Z,3.33
2022-08-10T07:36:22.866Z,3.60
2022-08-10T07:40:02.261Z,2.88
2022-08-10T07:42:53.708Z,3.08
2022-08-10T07:45:56.955Z,3.10
2022-08-10T07:49:18.953Z,3.00
2022-08-10T07:52:21.972Z,3.25
2022-08-10T07:58:54.039Z,2.97
2022-08-10T08:01:56.429Z,2.78
2022-08-10T08:05:02.484Z,3.00
2022-08-10T08:08:07.077Z,3.00
2022-08-10T08:11:10.341Z,3.25
2022-08-10T08:14:29.092Z,2.92
2022-08-10T08:17:36.456Z,2.72
2022-08-10T08:20:39.349Z,2.75
2022-08-10T08:24:31.434Z,2.70
2022-08-10T08:27:06.165Z,2.90
2022-08-10T08:30:09.065Z,2.97
2022-08-10T08:33:21.511Z,2.90
2022-08-10T08:36:40.314Z,2.67
2022-08-10T08:39:44.184Z,2.75
2022-08-10T08:42:48.884Z,2.38
2022-08-10T08:46:33.192Z,2.67
2022-08-10T08:50:09.649Z,2.50
2022-08-10T08:54:00.967Z,2.40
2022-08-10T08:57:06.393Z,2.70
2022-08-10T09:00:18.528Z,2.10
2022-08-10T09:03:51.223Z,2.55
2022-08-10T09:07:59.538Z,2.40
2022-08-10T09:10:58.522Z,2.22
2022-08-10T09:14:25.803Z,2.53
2022-08-10T09:17:38.992Z,2.35
2022-08-10T09:20:49.331Z,2.58
2022-08-10T09:24:05.843Z,2.40
2022-08-10T09:27:19.201Z,2.13
2022-08-10T09:30:33.073Z,2.70
2022-08-10T09:36:23.687Z,2.40
2022-08-10T09:37:39.972Z,2.63
2022-08-10T09:41:12.857Z,2.50
2022-08-10T09:44:57.701Z,2.42
2022-08-10T09:48:26.944Z,2.65
2022-08-10T09:51:47.519Z,2.63
2022-08-10T09:55:08.335Z,2.58
2022-08-10T09:58:25.990Z,2.75
2022-08-10T10:01:58.106Z,2.70
2022-08-10T10:05:25.243Z,2.47
2022-08-10T10:08:43.124Z,2.80
2022-08-10T10:12:09.322Z,2.60
2022-08-10T10:15:24.946Z,2.75
2022-08-10T10:18:44.222Z,2.60
2022-08-10T10:22:00.218Z,2.60
2022-08-10T10:25:42.708Z,2.75
2022-08-10T10:29:57.483Z,3.20
2022-08-10T10:33:14.564Z,2.50
2022-08-10T10:36:18.065Z,2.78
2022-08-10T10:39:24.275Z,2.60
2022-08-10T10:42:45.304Z,3.00
2022-08-10T10:45:54.040Z,2.70
2022-08-10T10:49:14.671Z,2.40
2022-08-10T10:52:39.085Z,2.80
2022-08-10T10:56:14.574Z,2.33
2022-08-10T10:59:53.879Z,2.47
2022-08-10T11:03:07.837Z,2.57
2022-08-10T11:06:18.543Z,2.50
2022-08-10T11:10:06.068Z,2.60
2022-08-10T11:14:27.174Z,2.42
2022-08-10T11:16:35.559Z,2.50
2022-08-10T11:20:04.484Z,2.60
2022-08-10T11:23:17.943Z,2.35
2022-08-10T11:26:35.431Z,2.30
2022-08-10T11:29:51.601Z,2.63
2022-08-10T11:33:32.835Z,2.22
2022-08-10T11:37:09.389Z,2.42
2022-08-10T11:40:39.034Z,3.28
2022-08-10T11:43:48.945Z,2.50
2022-08-10T11:47:01.199Z,2.65
2022-08-10T11:50:17.399Z,2.65
2022-08-10T11:53:23.133Z,2.42
2022-08-10T11:56:43.480Z,2.33
2022-08-10T11:59:57.985Z,2.20
2022-08-10T12:03:05.592Z,2.40
2022-08-10T12:06:13.383Z,2.30
2022-08-10T12:10:10.939Z,2.13
2022-08-10T12:13:02.919Z,2.58
2022-08-10T12:16:12.434Z,2.28
2022-08-10T12:19:23.981Z,2.10
2022-08-10T12:22:33.209Z,2.20
2022-08-10T12:25:57.025Z,1.90
2022-08-10T12:29:16.908Z,2.00
2022-08-10T12:32:47.799Z,2.13
2022-08-10T12:36:19.088Z,2.03
2022-08-10T12:39:26.915Z,2.10
2022-08-10T12:42:42.412Z,2.10
2022-08-10T12:45:53.193Z,1.85
2022-08-10T12:49:07.016Z,2.13
2022-08-10T12:52:14.543Z,2.10
2022-08-10T12:55:18.710Z,2.70
2022-08-10T12:58:59.010Z,2.20
2022-08-10T13:02:07.928Z,2.35
2022-08-10T13:05:13.831Z,2.35
2022-08-10T13:08:33.966Z,2.20
2022-08-10T13:12:35.189Z,2.65
2022-08-10T13:15:49.422Z,2.42
2022-08-10T13:18:53.816Z,2.50
2022-08-10T13:21:57.578Z,2.30
2022-08-10T13:25:03.727Z,2.40
2022-08-10T13:28:37.436Z,2.13
2022-08-10T13:32:09.880Z,2.45
2022-08-10T13:35:02.496Z,2.40
2022-08-10T13:38:06.975Z,2.65
2022-08-10T13:41:10.638Z,2.35
2022-08-10T13:44:17.556Z,2.60
2022-08-10T13:47:27.067Z,2.70
2022-08-10T13:50:35.539Z,2.45
2022-08-10T13:53:40.342Z,3.10
2022-08-10T13:56:46.354Z,2.28
2022-08-10T14:00:37.790Z,2.35
2022-08-10T14:03:18.352Z,2.20
2022-08-10T14:06:29.671Z,2.00
2022-08-10T14:09:32.848Z,1.90
2022-08-10T14:12:37.399Z,2.00
2022-08-10T14:15:40.178Z,2.38
2022-08-10T14:18:44.952Z,2.22
2022-08-10T14:21:46.880Z,2.08
2022-08-10T14:24:48.965Z,2.03
2022-08-10T14:28:02.801Z,2.30
2022-08-10T14:31:08.619Z,2.30
2022-08-10T14:34:13.290Z,2.30
2022-08-10T14:37:17.264Z,2.22
2022-08-10T14:40:25.566Z,2.17
2022-08-10T14:43:33.661Z,2.00
2022-08-10T14:46:43.333Z,2.10
2022-08-10T14:49:58.297Z,1.90
2022-08-10T14:53:09.247Z,2.38
2022-08-10T14:56:17.225Z,2.30
2022-08-10T14:59:19.615Z,2.30
2022-08-10T15:02:40.888Z,2.25
2022-08-10T15:05:45.105Z,2.13
2022-08-10T15:08:48.932Z,2.20
2022-08-10T15:12:15.348Z,2.25
2022-08-10T15:15:28.265Z,2.63
2022-08-10T15:18:32.300Z,2.38
2022-08-10T15:21:43.595Z,2.22
2022-08-10T15:25:06.572Z,2.60
2022-08-10T15:28:22.520Z,2.13
2022-08-10T15:32:02.651Z,2.15
2022-08-10T15:35:25.623Z,2.33
2022-08-10T15:38:34.929Z,2.30
2022-08-10T15:41:59.167Z,2.30
2022-08-10T15:45:01.927Z,2.20
2022-08-10T15:51:17.236Z,2.20
2022-08-10T15:54:33.120Z,2.20
2022-08-10T15:57:39.927Z,2.40
2022-08-10T16:00:54.581Z,2.40
2022-08-10T16:04:08.526Z,2.38
2022-08-10T16:07:15.505Z,2.40
2022-08-10T16:10:25.471Z,2.50
2022-08-10T16:13:50.358Z,2.50
2022-08-10T16:17:00.326Z,2.50
2022-08-10T16:20:04.534Z,2.40
2022-08-10T16:23:12.015Z,2.50
2022-08-10T16:26:23.970Z,2.80
2022-08-10T16:29:28.969Z,2.60
2022-08-10T16:32:32.812Z,2.80
2022-08-10T16:35:35.309Z,2.83
2022-08-10T16:38:42.337Z,2.50
2022-08-10T16:42:03.080Z,2.70
2022-08-10T16:45:11.567Z,2.55
2022-08-10T16:48:48.944Z,2.75
2022-08-10T16:51:47.697Z,2.45
2022-08-10T16:54:51.096Z,2.38
2022-08-10T16:57:56.459Z,2.30
2022-08-10T17:01:06.175Z,2.30
2022-08-10T17:04:10.279Z,2.47
2022-08-10T17:07:15.908Z,2.60
2022-08-10T17:10:20.294Z,2.50
2022-08-10T17:13:27.629Z,2.38
2022-08-10T17:16:42.617Z,2.20
2022-08-10T17:19:45.029Z,2.30
2022-08-10T17:22:51.554Z,2.60
2022-08-10T17:26:00.894Z,2.50
2022-08-10T17:29:53.332Z,2.40
2022-08-10T17:32:44.830Z,2.58
2022-08-10T17:35:51.740Z,2.38
2022-08-10T17:38:54.847Z,2.20
2022-08-10T17:41:57.790Z,2.60
2022-08-10T17:45:00.443Z,2.50
2022-08-10T17:48:08.172Z,2.63
2022-08-10T17:51:14.954Z,2.63
2022-08-10T17:54:34.290Z,2.42
2022-08-10T17:57:40.890Z,2.30
2022-08-10T18:00:45.868Z,2.30
2022-08-10T18:03:54.035Z,2.15
2022-08-10T18:06:58.805Z,2.30
2022-08-10T18:10:01.964Z,2.42
2022-08-10T18:13:04.506Z,2.33
2022-08-10T18:16:07.729Z,2.67
2022-08-10T18:19:12.311Z,2.35
2022-08-10T18:22:16.126Z,2.45
2022-08-10T18:25:29.531Z,2.47
2022-08-10T18:28:32.942Z,2.40
2022-08-10T18:31:37.261Z,2.22
2022-08-10T18:34:42.215Z,2.30
2022-08-10T18:37:48.108Z,2.40
2022-08-10T18:40:59.283Z,2.30
2022-08-10T18:44:13.778Z,2.05
2022-08-10T18:47:20.489Z,2.60
2022-08-10T18:50:30.415Z,2.40
2022-08-10T18:53:41.105Z,2.40
2022-08-10T18:56:59.526Z,2.25
2022-08-10T19:00:11.555Z,3.22
2022-08-10T19:03:25.625Z,2.58
2022-08-10T19:07:05.414Z,3.22
2022-08-10T19:10:16.677Z,2.90
2022-08-10T19:13:29.716Z,2.70
2022-08-10T19:16:35.133Z,2.83
2022-08-10T19:20:02.477Z,2.88
2022-08-10T19:23:10.779Z,2.60
2022-08-10T19:26:46.074Z,2.63
2022-08-10T19:30:13.314Z,2.28
2022-08-10T19:33:23.300Z,2.95
2022-08-10T19:36:43.501Z,2.75
2022-08-10T19:40:11.877Z,2.72
2022-08-10T19:44:00.019Z,2.50
2022-08-10T19:47:14.070Z,3.08
2022-08-10T19:50:18.445Z,2.72
2022-08-10T19:53:49.466Z,2.53
2022-08-10T19:57:15.529Z,2.60
2022-08-10T20:00:23.036Z,2.83
2022-08-10T20:03:39.869Z,3.15
2022-08-10T20:06:47.946Z,2.85
2022-08-10T20:10:00.128Z,2.72
2022-08-10T20:13:11.387Z,3.30
2022-08-10T20:16:21.165Z,4.10
2022-08-10T20:19:53.379Z,3.53
2022-08-10T20:23:15.681Z,5.15
2022-08-10T20:26:22.834Z,3.40
2022-08-10T20:29:57.995Z,3.42
2022-08-10T20:33:03.469Z,3.90
2022-08-10T20:36:07.416Z,4.10
2022-08-10T20:39:16.435Z,3.97
2022-08-10T20:42:36.428Z,4.22
2022-08-10T20:46:16.117Z,4.28
2022-08-10T20:49:37.210Z,3.78
2022-08-10T20:52:40.986Z,3.50
2022-08-10T20:56:11.954Z,3.80
2022-08-10T20:59:19.652Z,2.88
2022-08-10T21:02:33.855Z,3.00
2022-08-10T21:05:59.983Z,2.88
2022-08-10T21:09:20.384Z,2.92
2022-08-10T21:12:44.182Z,2.92
2022-08-10T21:16:06.854Z,3.28
2022-08-10T21:19:23.477Z,2.95
2022-08-10T21:22:33.271Z,3.10
2022-08-10T21:25:52.070Z,3.10
2022-08-10T21:29:00.518Z,3.03
2022-08-10T21:32:20.972Z,3.00
2022-08-10T21:35:38.403Z,3.20
2022-08-10T21:39:10.182Z,3.20
2022-08-10T21:42:49.072Z,3.13
2022-08-10T21:46:37.149Z,3.03
2022-08-10T21:50:08.559Z,2.90
2022-08-10T21:53:44.645Z,3.05
2022-08-10T21:57:43.556Z,3.17
2022-08-10T22:01:12.166Z,2.88
2022-08-10T22:04:36.019Z,3.33
2022-08-10T22:07:57.855Z,3.00
2022-08-10T22:11:21.569Z,3.38
2022-08-10T22:14:56.454Z,3.35
2022-08-10T22:18:31.251Z,3.08
2022-08-10T22:22:27.542Z,3.28
2022-08-10T22:26:05.863Z,2.97
2022-08-10T22:29:42.689Z,3.08
2022-08-10T22:33:15.470Z,2.85
2022-08-10T22:37:14.551Z,3.03
2022-08-10T22:40:39.295Z,3.17
2022-08-10T22:43:59.595Z,3.58
2022-08-10T22:47:21.140Z,3.28
2022-08-10T22:50:28.186Z,3.28
2022-08-10T22:53:55.455Z,3.40
2022-08-10T22:57:15.769Z,3.58
2022-08-10T23:00:20.493Z,3.28
2022-08-10T23:03:43.048Z,3.55
2022-08-10T23:07:10.635Z,3.00
2022-08-10T23:10:15.305Z,3.00
2022-08-10T23:13:36.120Z,2.80
2022-08-10T23:17:07.670Z,3.63
2022-08-10T23:20:12.867Z,3.83
2022-08-10T23:23:23.570Z,3.33
2022-08-10T23:26:27.386Z,3.50
2022-08-10T23:29:30.819Z,3.42
2022-08-10T23:32:38.739Z,3.38
2022-08-10T23:36:31.737Z,3.47
2022-08-10T23:39:26.812Z,3.50
2022-08-10T23:42:37.757Z,3.63
2022-08-10T23:45:52.822Z,3.10
2022-08-10T23:49:00.114Z,3.60
2022-08-10T23:52:10.084Z,3.55
2022-08-10T23:55:19.558Z,3.60
2022-08-10T23:58:32.792Z,3.53
